sensor_id;sensor_type;location;lat;lon;timestamp;P1;durP1;ratioP1;P2;durP2;ratioP2
47882;SDS011;37739;50.350;7.578;2022-09-14T00:00:31;3.60;;;3.17;;
47882;SDS011;37739;50.350;7.578;2022-09-14T00:02:57;4.63;;;4.20;;
47882;SDS011;37739;50.350;7.578;2022-09-14T00:05:22;4.53;;;3.90;;
47882;SDS011;37739;50.350;7.578;2022-09-14T00:07:47;5.80;;;3.87;;
47882;SDS011;37739;50.350;7.578;2022-09-14T00:10:13;4.40;;;4.00;;
47882;SDS011;37739;50.350;7.578;2022-09-14T00:12:41;4.03;;;3.63;;
47882;SDS011;37739;50.350;7.578;2022-09-14T00:15:09;4.30;;;3.90;;
47882;SDS011;37739;50.350;7.578;2022-09-14T00:17:36;4.23;;;3.83;;
47882;SDS011;37739;50.350;7.578;2022-09-14T00:20:02;4.63;;;4.23;;
47882;SDS011;37739;50.350;7.578;2022-09-14T00:22:31;4.90;;;4.50;;
47882;SDS011;37739;50.350;7.578;2022-09-14T00:24:58;4.73;;;4.27;;
47882;SDS011;37739;50.350;7.578;2022-09-14T00:27:26;4.60;;;4.20;;
47882;SDS011;37739;50.350;7.578;2022-09-14T00:29:54;8.13;;;5.30;;
47882;SDS011;37739;50.350;7.578;2022-09-14T00:32:19;5.23;;;4.73;;
47882;SDS011;37739;50.350;7.578;2022-09-14T00:34:47;6.10;;;5.47;;
47882;SDS011;37739;50.350;7.578;2022-09-14T00:37:14;5.53;;;5.13;;
47882;SDS011;37739;50.350;7.578;2022-09-14T00:39:40;5.30;;;4.80;;
47882;SDS011;37739;50.350;7.578;2022-09-14T00:42:05;5.03;;;4.60;;
47882;SDS011;37739;50.350;7.578;2022-09-14T00:47:14;5.33;;;4.20;;
47882;SDS011;37739;50.350;7.578;2022-09-14T00:49:41;6.17;;;3.60;;
47882;SDS011;37739;50.350;7.578;2022-09-14T00:54:55;3.97;;;3.40;;
47882;SDS011;37739;50.350;7.578;2022-09-14T00:57:22;3.70;;;3.17;;
47882;SDS011;37739;50.350;7.578;2022-09-14T00:59:52;3.33;;;3.03;;
47882;SDS011;37739;50.350;7.578;2022-09-14T01:02:21;3.80;;;3.50;;
47882;SDS011;37739;50.350;7.578;2022-09-14T01:04:48;3.97;;;3.60;;
47882;SDS011;37739;50.350;7.578;2022-09-14T01:12:38;4.73;;;4.33;;
47882;SDS011;37739;50.350;7.578;2022-09-14T01:15:47;5.63;;;3.70;;
47882;SDS011;37739;50.350;7.578;2022-09-14T01:21:04;4.73;;;4.30;;
47882;SDS011;37739;50.350;7.578;2022-09-14T01:32:10;4.50;;;4.10;;
47882;SDS011;37739;50.350;7.578;2022-09-14T01:35:06;5.07;;;4.57;;
47882;SDS011;37739;50.350;7.578;2022-09-14T01:37:41;4.50;;;4.10;;
47882;SDS011;37739;50.350;7.578;2022-09-14T01:40:17;3.80;;;3.50;;
47882;SDS011;37739;50.350;7.578;2022-09-14T01:42:58;3.83;;;3.43;;
47882;SDS011;37739;50.350;7.578;2022-09-14T01:45:45;4.67;;;4.27;;
47882;SDS011;37739;50.350;7.578;2022-09-14T01:48:14;4.10;;;3.80;;
47882;SDS011;37739;50.350;7.578;2022-09-14T01:50:48;5.30;;;4.57;;
47882;SDS011;37739;50.350;7.578;2022-09-14T01:53:37;4.30;;;3.73;;
47882;SDS011;37739;50.350;7.578;2022-09-14T01:56:14;4.40;;;4.00;;
47882;SDS011;37739;50.350;7.578;2022-09-14T02:01:17;5.00;;;4.50;;
47882;SDS011;37739;50.350;7.578;2022-09-14T02:03:52;5.27;;;4.87;;
47882;SDS011;37739;50.350;7.578;2022-09-14T02:06:24;4.70;;;4.30;;
47882;SDS011;37739;50.350;7.578;2022-09-14T02:09:02;5.00;;;4.60;;
47882;SDS011;37739;50.350;7.578;2022-09-14T02:11:29;5.90;;;4.80;;
47882;SDS011;37739;50.350;7.578;2022-09-14T02:13:57;5.60;;;5.20;;
47882;SDS011;37739;50.350;7.578;2022-09-14T02:16:23;5.47;;;4.97;;
47882;SDS011;37739;50.350;7.578;2022-09-14T02:18:49;5.00;;;4.57;;
47882;SDS011;37739;50.350;7.578;2022-09-14T02:21:25;5.90;;;5.33;;
47882;SDS011;37739;50.350;7.578;2022-09-14T02:23:52;5.90;;;5.40;;
47882;SDS011;37739;50.350;7.578;2022-09-14T02:26:18;5.97;;;5.47;;
47882;SDS011;37739;50.350;7.578;2022-09-14T02:28:47;7.77;;;7.07;;
47882;SDS011;37739;50.350;7.578;2022-09-14T02:31:29;7.90;;;7.10;;
47882;SDS011;37739;50.350;7.578;2022-09-14T02:39:37;7.80;;;7.07;;
47882;SDS011;37739;50.350;7.578;2022-09-14T02:50:29;8.03;;;7.33;;
47882;SDS011;37739;50.350;7.578;2022-09-14T02:53:09;7.97;;;7.03;;
47882;SDS011;37739;50.350;7.578;2022-09-14T02:55:56;6.47;;;5.87;;
47882;SDS011;37739;50.350;7.578;2022-09-14T02:58:24;5.73;;;5.23;;
47882;SDS011;37739;50.350;7.578;2022-09-14T03:00:58;4.90;;;4.43;;
47882;SDS011;37739;50.350;7.578;2022-09-14T03:03:29;5.03;;;4.63;;
47882;SDS011;37739;50.350;7.578;2022-09-14T03:05:55;4.63;;;4.23;;
47882;SDS011;37739;50.350;7.578;2022-09-14T03:08:21;5.43;;;4.93;;
47882;SDS011;37739;50.350;7.578;2022-09-14T03:10:49;5.13;;;4.73;;
47882;SDS011;37739;50.350;7.578;2022-09-14T03:13:17;6.00;;;5.50;;
47882;SDS011;37739;50.350;7.578;2022-09-14T03:15:42;4.73;;;4.33;;
47882;SDS011;37739;50.350;7.578;2022-09-14T03:18:10;5.60;;;5.10;;
47882;SDS011;37739;50.350;7.578;2022-09-14T03:20:36;4.87;;;4.47;;
47882;SDS011;37739;50.350;7.578;2022-09-14T03:23:02;5.30;;;4.90;;
47882;SDS011;37739;50.350;7.578;2022-09-14T03:25:29;4.97;;;4.57;;
47882;SDS011;37739;50.350;7.578;2022-09-14T03:27:57;4.70;;;4.30;;
47882;SDS011;37739;50.350;7.578;2022-09-14T03:30:26;3.87;;;3.57;;
47882;SDS011;37739;50.350;7.578;2022-09-14T03:32:54;4.50;;;4.20;;
47882;SDS011;37739;50.350;7.578;2022-09-14T03:35:19;3.87;;;3.57;;
47882;SDS011;37739;50.350;7.578;2022-09-14T03:37:45;4.10;;;3.50;;
47882;SDS011;37739;50.350;7.578;2022-09-14T03:40:14;4.30;;;3.80;;
47882;SDS011;37739;50.350;7.578;2022-09-14T03:42:42;3.70;;;3.40;;
47882;SDS011;37739;50.350;7.578;2022-09-14T03:45:15;3.90;;;3.60;;
47882;SDS011;37739;50.350;7.578;2022-09-14T03:47:44;3.80;;;3.50;;
47882;SDS011;37739;50.350;7.578;2022-09-14T03:50:13;4.03;;;3.73;;
47882;SDS011;37739;50.350;7.578;2022-09-14T03:52:40;3.93;;;3.63;;
47882;SDS011;37739;50.350;7.578;2022-09-14T03:55:06;4.33;;;3.93;;
47882;SDS011;37739;50.350;7.578;2022-09-14T03:57:32;4.30;;;3.80;;
47882;SDS011;37739;50.350;7.578;2022-09-14T04:00:03;4.27;;;3.87;;
47882;SDS011;37739;50.350;7.578;2022-09-14T04:02:30;3.90;;;3.60;;
47882;SDS011;37739;50.350;7.578;2022-09-14T04:04:58;3.80;;;3.50;;
47882;SDS011;37739;50.350;7.578;2022-09-14T04:07:23;5.17;;;3.83;;
47882;SDS011;37739;50.350;7.578;2022-09-14T04:09:51;3.70;;;3.40;;
47882;SDS011;37739;50.350;7.578;2022-09-14T04:12:16;4.00;;;3.70;;
47882;SDS011;37739;50.350;7.578;2022-09-14T04:14:41;3.87;;;3.57;;
47882;SDS011;37739;50.350;7.578;2022-09-14T04:17:07;4.60;;;4.20;;
47882;SDS011;37739;50.350;7.578;2022-09-14T04:19:32;4.30;;;4.00;;
47882;SDS011;37739;50.350;7.578;2022-09-14T04:22:01;4.40;;;4.00;;
47882;SDS011;37739;50.350;7.578;2022-09-14T04:24:29;3.83;;;3.53;;
47882;SDS011;37739;50.350;7.578;2022-09-14T04:26:54;3.33;;;3.03;;
47882;SDS011;37739;50.350;7.578;2022-09-14T04:29:19;3.90;;;3.60;;
47882;SDS011;37739;50.350;7.578;2022-09-14T04:31:47;3.90;;;3.50;;
47882;SDS011;37739;50.350;7.578;2022-09-14T04:34:14;3.83;;;3.53;;
47882;SDS011;37739;50.350;7.578;2022-09-14T04:36:40;3.70;;;3.40;;
47882;SDS011;37739;50.350;7.578;2022-09-14T04:39:05;3.50;;;3.20;;
47882;SDS011;37739;50.350;7.578;2022-09-14T04:41:34;3.80;;;3.43;;
47882;SDS011;37739;50.350;7.578;2022-09-14T04:44:04;3.47;;;3.13;;
47882;SDS011;37739;50.350;7.578;2022-09-14T04:46:32;3.70;;;3.40;;
47882;SDS011;37739;50.350;7.578;2022-09-14T04:49:03;3.50;;;3.20;;
47882;SDS011;37739;50.350;7.578;2022-09-14T04:51:29;3.43;;;3.13;;
47882;SDS011;37739;50.350;7.578;2022-09-14T04:53:59;3.60;;;3.30;;
47882;SDS011;37739;50.350;7.578;2022-09-14T04:56:26;3.60;;;3.30;;
47882;SDS011;37739;50.350;7.578;2022-09-14T04:58:57;4.17;;;3.70;;
47882;SDS011;37739;50.350;7.578;2022-09-14T05:01:28;4.90;;;3.83;;
47882;SDS011;37739;50.350;7.578;2022-09-14T05:04:01;3.67;;;3.40;;
47882;SDS011;37739;50.350;7.578;2022-09-14T05:06:31;3.73;;;3.43;;
47882;SDS011;37739;50.350;7.578;2022-09-14T05:08:58;4.73;;;4.33;;
47882;SDS011;37739;50.350;7.578;2022-09-14T05:11:26;4.50;;;4.00;;
47882;SDS011;37739;50.350;7.578;2022-09-14T05:13:56;3.87;;;3.57;;
47882;SDS011;37739;50.350;7.578;2022-09-14T05:16:24;4.20;;;3.90;;
47882;SDS011;37739;50.350;7.578;2022-09-14T05:18:52;4.70;;;4.30;;
47882;SDS011;37739;50.350;7.578;2022-09-14T05:21:19;4.53;;;4.20;;
47882;SDS011;37739;50.350;7.578;2022-09-14T05:23:45;4.20;;;3.87;;
47882;SDS011;37739;50.350;7.578;2022-09-14T05:26:19;3.90;;;3.60;;
47882;SDS011;37739;50.350;7.578;2022-09-14T05:28:48;4.90;;;4.40;;
47882;SDS011;37739;50.350;7.578;2022-09-14T05:31:15;4.30;;;3.97;;
47882;SDS011;37739;50.350;7.578;2022-09-14T05:33:43;3.90;;;3.60;;
47882;SDS011;37739;50.350;7.578;2022-09-14T05:36:11;3.43;;;3.13;;
47882;SDS011;37739;50.350;7.578;2022-09-14T05:38:36;3.37;;;3.07;;
47882;SDS011;37739;50.350;7.578;2022-09-14T05:41:03;3.40;;;3.00;;
47882;SDS011;37739;50.350;7.578;2022-09-14T05:43:34;3.80;;;3.50;;
47882;SDS011;37739;50.350;7.578;2022-09-14T05:46:00;3.47;;;3.17;;
47882;SDS011;37739;50.350;7.578;2022-09-14T05:48:26;2.90;;;2.70;;
47882;SDS011;37739;50.350;7.578;2022-09-14T05:51:01;3.87;;;2.83;;
47882;SDS011;37739;50.350;7.578;2022-09-14T05:53:29;4.53;;;3.40;;
47882;SDS011;37739;50.350;7.578;2022-09-14T05:58:34;3.60;;;2.93;;
47882;SDS011;37739;50.350;7.578;2022-09-14T06:01:08;4.03;;;3.70;;
47882;SDS011;37739;50.350;7.578;2022-09-14T06:03:57;4.37;;;4.07;;
47882;SDS011;37739;50.350;7.578;2022-09-14T06:06:24;3.93;;;3.63;;
47882;SDS011;37739;50.350;7.578;2022-09-14T06:08:50;4.37;;;4.07;;
47882;SDS011;37739;50.350;7.578;2022-09-14T06:11:24;3.80;;;3.50;;
47882;SDS011;37739;50.350;7.578;2022-09-14T06:13:52;4.00;;;3.63;;
47882;SDS011;37739;50.350;7.578;2022-09-14T06:16:19;4.57;;;4.17;;
47882;SDS011;37739;50.350;7.578;2022-09-14T06:18:48;4.00;;;3.70;;
47882;SDS011;37739;50.350;7.578;2022-09-14T06:21:15;3.40;;;3.10;;
47882;SDS011;37739;50.350;7.578;2022-09-14T06:23:44;3.40;;;3.10;;
47882;SDS011;37739;50.350;7.578;2022-09-14T06:26:11;3.70;;;3.40;;
47882;SDS011;37739;50.350;7.578;2022-09-14T06:28:36;4.70;;;4.13;;
47882;SDS011;37739;50.350;7.578;2022-09-14T06:31:05;3.50;;;3.30;;
47882;SDS011;37739;50.350;7.578;2022-09-14T06:33:32;4.13;;;3.67;;
47882;SDS011;37739;50.350;7.578;2022-09-14T06:38:25;4.00;;;3.70;;
47882;SDS011;37739;50.350;7.578;2022-09-14T06:40:54;4.40;;;4.00;;
47882;SDS011;37739;50.350;7.578;2022-09-14T06:43:31;3.90;;;3.30;;
47882;SDS011;37739;50.350;7.578;2022-09-14T06:45:58;3.17;;;2.83;;
47882;SDS011;37739;50.350;7.578;2022-09-14T06:48:27;2.73;;;2.53;;
47882;SDS011;37739;50.350;7.578;2022-09-14T06:50:53;2.57;;;2.37;;
47882;SDS011;37739;50.350;7.578;2022-09-14T06:53:19;2.50;;;2.30;;
47882;SDS011;37739;50.350;7.578;2022-09-14T06:55:45;2.77;;;2.57;;
47882;SDS011;37739;50.350;7.578;2022-09-14T06:58:10;3.00;;;2.40;;
47882;SDS011;37739;50.350;7.578;2022-09-14T07:00:36;2.73;;;2.53;;
47882;SDS011;37739;50.350;7.578;2022-09-14T07:03:01;3.00;;;2.70;;
47882;SDS011;37739;50.350;7.578;2022-09-14T07:05:26;2.90;;;2.70;;
47882;SDS011;37739;50.350;7.578;2022-09-14T07:07:52;2.33;;;2.13;;
47882;SDS011;37739;50.350;7.578;2022-09-14T07:10:21;3.00;;;2.30;;
47882;SDS011;37739;50.350;7.578;2022-09-14T07:12:52;2.70;;;2.50;;
47882;SDS011;37739;50.350;7.578;2022-09-14T07:15:18;3.33;;;2.90;;
47882;SDS011;37739;50.350;7.578;2022-09-14T07:17:44;2.93;;;2.63;;
47882;SDS011;37739;50.350;7.578;2022-09-14T07:20:12;3.10;;;2.80;;
47882;SDS011;37739;50.350;7.578;2022-09-14T07:22:39;2.60;;;2.40;;
47882;SDS011;37739;50.350;7.578;2022-09-14T07:25:05;2.57;;;2.37;;
47882;SDS011;37739;50.350;7.578;2022-09-14T07:27:31;3.13;;;2.83;;
47882;SDS011;37739;50.350;7.578;2022-09-14T07:29:57;2.73;;;2.00;;
47882;SDS011;37739;50.350;7.578;2022-09-14T07:32:24;2.63;;;2.43;;
47882;SDS011;37739;50.350;7.578;2022-09-14T07:34:51;2.23;;;2.10;;
47882;SDS011;37739;50.350;7.578;2022-09-14T07:37:17;4.13;;;2.30;;
47882;SDS011;37739;50.350;7.578;2022-09-14T07:39:42;2.30;;;2.10;;
47882;SDS011;37739;50.350;7.578;2022-09-14T07:42:07;2.50;;;2.10;;
47882;SDS011;37739;50.350;7.578;2022-09-14T07:44:33;2.30;;;2.10;;
47882;SDS011;37739;50.350;7.578;2022-09-14T07:46:58;2.57;;;2.37;;
47882;SDS011;37739;50.350;7.578;2022-09-14T07:49:23;1.93;;;1.83;;
47882;SDS011;37739;50.350;7.578;2022-09-14T07:51:49;2.60;;;2.20;;
47882;SDS011;37739;50.350;7.578;2022-09-14T07:54:17;2.60;;;2.40;;
47882;SDS011;37739;50.350;7.578;2022-09-14T07:56:43;3.03;;;2.83;;
47882;SDS011;37739;50.350;7.578;2022-09-14T07:59:12;3.20;;;2.90;;
47882;SDS011;37739;50.350;7.578;2022-09-14T08:01:38;3.00;;;2.60;;
47882;SDS011;37739;50.350;7.578;2022-09-14T08:04:03;2.37;;;2.17;;
47882;SDS011;37739;50.350;7.578;2022-09-14T08:06:29;3.00;;;2.80;;
47882;SDS011;37739;50.350;7.578;2022-09-14T08:08:57;3.13;;;2.57;;
47882;SDS011;37739;50.350;7.578;2022-09-14T08:11:24;2.70;;;1.80;;
47882;SDS011;37739;50.350;7.578;2022-09-14T08:13:53;2.23;;;1.73;;
47882;SDS011;37739;50.350;7.578;2022-09-14T08:16:23;2.30;;;2.10;;
47882;SDS011;37739;50.350;7.578;2022-09-14T08:18:52;2.70;;;1.70;;
47882;SDS011;37739;50.350;7.578;2022-09-14T08:21:29;2.10;;;1.70;;
47882;SDS011;37739;50.350;7.578;2022-09-14T08:23:59;2.17;;;1.63;;
47882;SDS011;37739;50.350;7.578;2022-09-14T08:26:26;1.70;;;1.47;;
47882;SDS011;37739;50.350;7.578;2022-09-14T08:28:55;1.93;;;1.83;;
47882;SDS011;37739;50.350;7.578;2022-09-14T08:31:27;1.80;;;1.70;;
47882;SDS011;37739;50.350;7.578;2022-09-14T08:33:56;2.03;;;1.80;;
47882;SDS011;37739;50.350;7.578;2022-09-14T08:36:31;1.97;;;1.73;;
47882;SDS011;37739;50.350;7.578;2022-09-14T08:38:58;1.70;;;1.60;;
47882;SDS011;37739;50.350;7.578;2022-09-14T08:41:28;2.50;;;2.10;;
47882;SDS011;37739;50.350;7.578;2022-09-14T08:52:11;1.70;;;1.50;;
47882;SDS011;37739;50.350;7.578;2022-09-14T08:55:00;1.80;;;1.67;;
47882;SDS011;37739;50.350;7.578;2022-09-14T09:00:13;2.00;;;1.70;;
47882;SDS011;37739;50.350;7.578;2022-09-14T09:08:16;1.87;;;1.50;;
47882;SDS011;37739;50.350;7.578;2022-09-14T09:11:00;1.30;;;1.20;;
47882;SDS011;37739;50.350;7.578;2022-09-14T09:13:33;1.40;;;1.30;;
47882;SDS011;37739;50.350;7.578;2022-09-14T09:16:03;1.50;;;1.40;;
47882;SDS011;37739;50.350;7.578;2022-09-14T09:18:38;1.57;;;1.13;;
47882;SDS011;37739;50.350;7.578;2022-09-14T09:21:10;1.43;;;1.10;;
47882;SDS011;37739;50.350;7.578;2022-09-14T09:23:46;2.30;;;1.33;;
47882;SDS011;37739;50.350;7.578;2022-09-14T09:26:16;2.73;;;1.37;;
47882;SDS011;37739;50.350;7.578;2022-09-14T09:28:51;2.50;;;1.67;;
47882;SDS011;37739;50.350;7.578;2022-09-14T09:31:22;1.50;;;1.40;;
47882;SDS011;37739;50.350;7.578;2022-09-14T09:34:02;1.80;;;1.47;;
47882;SDS011;37739;50.350;7.578;2022-09-14T09:36:32;2.40;;;1.67;;
47882;SDS011;37739;50.350;7.578;2022-09-14T09:39:01;2.23;;;2.03;;
47882;SDS011;37739;50.350;7.578;2022-09-14T09:41:28;4.83;;;3.33;;
47882;SDS011;37739;50.350;7.578;2022-09-14T09:46:43;2.80;;;2.60;;
47882;SDS011;37739;50.350;7.578;2022-09-14T09:49:18;2.60;;;2.00;;
47882;SDS011;37739;50.350;7.578;2022-09-14T09:51:47;2.63;;;2.43;;
47882;SDS011;37739;50.350;7.578;2022-09-14T09:54:28;2.10;;;1.90;;
47882;SDS011;37739;50.350;7.578;2022-09-14T09:59:47;3.40;;;2.60;;
47882;SDS011;37739;50.350;7.578;2022-09-14T10:04:54;2.97;;;2.77;;
47882;SDS011;37739;50.350;7.578;2022-09-14T10:07:25;2.97;;;2.70;;
47882;SDS011;37739;50.350;7.578;2022-09-14T10:10:05;3.10;;;2.80;;
47882;SDS011;37739;50.350;7.578;2022-09-14T10:12:33;4.27;;;3.73;;
47882;SDS011;37739;50.350;7.578;2022-09-14T10:21:03;4.13;;;3.83;;
47882;SDS011;37739;50.350;7.578;2022-09-14T10:23:27;4.07;;;3.77;;
47882;SDS011;37739;50.350;7.578;2022-09-14T10:28:36;5.40;;;4.87;;
47882;SDS011;37739;50.350;7.578;2022-09-14T10:31:07;5.17;;;4.77;;
47882;SDS011;37739;50.350;7.578;2022-09-14T10:33:40;4.47;;;4.07;;
47882;SDS011;37739;50.350;7.578;2022-09-14T10:52:19;5.80;;;5.30;;
47882;SDS011;37739;50.350;7.578;2022-09-14T11:12:11;6.00;;;5.40;;
47882;SDS011;37739;50.350;7.578;2022-09-14T11:21:00;5.70;;;5.20;;
47882;SDS011;37739;50.350;7.578;2022-09-14T11:26:09;6.03;;;5.43;;
47882;SDS011;37739;50.350;7.578;2022-09-14T11:28:40;7.13;;;6.40;;
47882;SDS011;37739;50.350;7.578;2022-09-14T11:31:30;5.80;;;5.30;;
47882;SDS011;37739;50.350;7.578;2022-09-14T11:34:06;5.70;;;5.20;;
47882;SDS011;37739;50.350;7.578;2022-09-14T11:36:49;6.33;;;5.83;;
47882;SDS011;37739;50.350;7.578;2022-09-14T11:39:25;5.43;;;4.77;;
47882;SDS011;37739;50.350;7.578;2022-09-14T11:41:57;5.77;;;5.27;;
47882;SDS011;37739;50.350;7.578;2022-09-14T11:44:41;5.50;;;5.00;;
47882;SDS011;37739;50.350;7.578;2022-09-14T11:47:12;5.33;;;4.47;;
47882;SDS011;37739;50.350;7.578;2022-09-14T11:52:20;5.57;;;5.00;;
47882;SDS011;37739;50.350;7.578;2022-09-14T11:54:50;4.70;;;4.30;;
47882;SDS011;37739;50.350;7.578;2022-09-14T11:59:49;5.10;;;4.70;;
47882;SDS011;37739;50.350;7.578;2022-09-14T12:02:55;6.00;;;5.40;;
47882;SDS011;37739;50.350;7.578;2022-09-14T12:05:27;5.20;;;3.77;;
47882;SDS011;37739;50.350;7.578;2022-09-14T12:07:56;6.43;;;3.47;;
47882;SDS011;37739;50.350;7.578;2022-09-14T12:10:24;3.63;;;3.33;;
47882;SDS011;37739;50.350;7.578;2022-09-14T12:12:57;3.20;;;2.97;;
47882;SDS011;37739;50.350;7.578;2022-09-14T12:15:42;3.40;;;3.10;;
47882;SDS011;37739;50.350;7.578;2022-09-14T12:51:12;2.40;;;2.20;;
47882;SDS011;37739;50.350;7.578;2022-09-14T12:53:43;2.43;;;2.23;;
47882;SDS011;37739;50.350;7.578;2022-09-14T12:56:22;3.70;;;2.50;;
47882;SDS011;37739;50.350;7.578;2022-09-14T12:58:57;2.70;;;2.50;;
47882;SDS011;37739;50.350;7.578;2022-09-14T13:01:37;2.23;;;2.03;;
47882;SDS011;37739;50.350;7.578;2022-09-14T13:04:19;4.07;;;2.00;;
47882;SDS011;37739;50.350;7.578;2022-09-14T13:06:58;2.67;;;2.47;;
47882;SDS011;37739;50.350;7.578;2022-09-14T13:09:29;2.50;;;2.30;;
47882;SDS011;37739;50.350;7.578;2022-09-14T13:12:03;2.87;;;2.57;;
47882;SDS011;37739;50.350;7.578;2022-09-14T13:14:31;3.33;;;3.10;;
47882;SDS011;37739;50.350;7.578;2022-09-14T13:17:11;4.17;;;3.77;;
47882;SDS011;37739;50.350;7.578;2022-09-14T13:19:39;3.80;;;3.50;;
47882;SDS011;37739;50.350;7.578;2022-09-14T13:22:15;3.80;;;3.40;;
47882;SDS011;37739;50.350;7.578;2022-09-14T13:24:43;3.30;;;2.97;;
47882;SDS011;37739;50.350;7.578;2022-09-14T13:27:19;4.30;;;3.30;;
47882;SDS011;37739;50.350;7.578;2022-09-14T13:29:55;5.27;;;3.50;;
47882;SDS011;37739;50.350;7.578;2022-09-14T13:32:24;3.37;;;3.07;;
47882;SDS011;37739;50.350;7.578;2022-09-14T13:34:50;3.17;;;2.87;;
47882;SDS011;37739;50.350;7.578;2022-09-14T13:37:18;4.23;;;3.40;;
47882;SDS011;37739;50.350;7.578;2022-09-14T13:39:51;3.20;;;2.90;;
47882;SDS011;37739;50.350;7.578;2022-09-14T13:42:20;3.67;;;3.37;;
47882;SDS011;37739;50.350;7.578;2022-09-14T13:44:47;4.00;;;3.60;;
47882;SDS011;37739;50.350;7.578;2022-09-14T13:47:15;3.93;;;3.50;;
47882;SDS011;37739;50.350;7.578;2022-09-14T13:49:45;3.70;;;3.40;;
47882;SDS011;37739;50.350;7.578;2022-09-14T13:54:47;3.83;;;3.13;;
47882;SDS011;37739;50.350;7.578;2022-09-14T13:57:35;2.70;;;2.50;;
47882;SDS011;37739;50.350;7.578;2022-09-14T14:02:41;2.83;;;2.63;;
47882;SDS011;37739;50.350;7.578;2022-09-14T14:05:19;3.40;;;3.10;;
47882;SDS011;37739;50.350;7.578;2022-09-14T14:07:46;3.37;;;3.10;;
47882;SDS011;37739;50.350;7.578;2022-09-14T14:13:13;3.20;;;2.90;;
47882;SDS011;37739;50.350;7.578;2022-09-14T14:15:49;3.83;;;3.53;;
47882;SDS011;37739;50.350;7.578;2022-09-14T14:18:28;3.60;;;3.30;;
47882;SDS011;37739;50.350;7.578;2022-09-14T14:21:02;3.10;;;2.80;;
47882;SDS011;37739;50.350;7.578;2022-09-14T14:23:29;2.90;;;2.57;;
47882;SDS011;37739;50.350;7.578;2022-09-14T14:25:54;3.07;;;2.87;;
47882;SDS011;37739;50.350;7.578;2022-09-14T14:28:33;3.93;;;3.27;;
47882;SDS011;37739;50.350;7.578;2022-09-14T14:30:59;4.20;;;3.80;;
47882;SDS011;37739;50.350;7.578;2022-09-14T14:33:33;5.30;;;3.47;;
47882;SDS011;37739;50.350;7.578;2022-09-14T14:36:07;4.83;;;3.93;;
47882;SDS011;37739;50.350;7.578;2022-09-14T14:38:34;4.70;;;4.17;;
47882;SDS011;37739;50.350;7.578;2022-09-14T14:41:00;4.13;;;3.77;;
47882;SDS011;37739;50.350;7.578;2022-09-14T14:43:26;4.10;;;3.70;;
47882;SDS011;37739;50.350;7.578;2022-09-14T14:45:56;5.30;;;4.50;;
47882;SDS011;37739;50.350;7.578;2022-09-14T14:48:23;4.80;;;4.30;;
47882;SDS011;37739;50.350;7.578;2022-09-14T14:50:49;3.80;;;3.50;;
47882;SDS011;37739;50.350;7.578;2022-09-14T14:53:15;5.50;;;4.20;;
47882;SDS011;37739;50.350;7.578;2022-09-14T14:55:40;4.70;;;4.30;;
47882;SDS011;37739;50.350;7.578;2022-09-14T14:58:15;4.87;;;3.97;;
47882;SDS011;37739;50.350;7.578;2022-09-14T15:00:44;4.83;;;4.43;;
47882;SDS011;37739;50.350;7.578;2022-09-14T15:03:11;3.43;;;3.13;;
47882;SDS011;37739;50.350;7.578;2022-09-14T15:05:42;2.67;;;2.47;;
47882;SDS011;37739;50.350;7.578;2022-09-14T15:08:14;5.23;;;3.90;;
47882;SDS011;37739;50.350;7.578;2022-09-14T15:10:43;4.00;;;3.00;;
47882;SDS011;37739;50.350;7.578;2022-09-14T15:13:10;7.13;;;3.37;;
47882;SDS011;37739;50.350;7.578;2022-09-14T15:15:38;3.47;;;3.17;;
47882;SDS011;37739;50.350;7.578;2022-09-14T15:18:09;3.73;;;3.43;;
47882;SDS011;37739;50.350;7.578;2022-09-14T15:20:37;3.77;;;3.47;;
47882;SDS011;37739;50.350;7.578;2022-09-14T15:23:02;3.57;;;3.23;;
47882;SDS011;37739;50.350;7.578;2022-09-14T15:25:32;3.40;;;3.17;;
47882;SDS011;37739;50.350;7.578;2022-09-14T15:27:57;3.13;;;2.77;;
47882;SDS011;37739;50.350;7.578;2022-09-14T15:30:25;3.80;;;3.33;;
47882;SDS011;37739;50.350;7.578;2022-09-14T15:32:50;3.10;;;2.80;;
47882;SDS011;37739;50.350;7.578;2022-09-14T15:35:18;3.80;;;3.50;;
47882;SDS011;37739;50.350;7.578;2022-09-14T15:37:45;3.97;;;3.60;;
47882;SDS011;37739;50.350;7.578;2022-09-14T15:40:13;4.80;;;3.60;;
47882;SDS011;37739;50.350;7.578;2022-09-14T15:42:43;3.23;;;2.93;;
47882;SDS011;37739;50.350;7.578;2022-09-14T15:45:08;3.40;;;3.10;;
47882;SDS011;37739;50.350;7.578;2022-09-14T15:47:34;4.77;;;3.80;;
47882;SDS011;37739;50.350;7.578;2022-09-14T15:50:05;4.27;;;3.97;;
47882;SDS011;37739;50.350;7.578;2022-09-14T15:52:32;4.80;;;4.40;;
47882;SDS011;37739;50.350;7.578;2022-09-14T15:54:59;5.33;;;4.83;;
47882;SDS011;37739;50.350;7.578;2022-09-14T15:57:24;4.20;;;3.83;;
47882;SDS011;37739;50.350;7.578;2022-09-14T15:59:51;3.63;;;2.40;;
47882;SDS011;37739;50.350;7.578;2022-09-14T16:02:21;4.27;;;3.97;;
47882;SDS011;37739;50.350;7.578;2022-09-14T16:04:47;4.33;;;3.93;;
47882;SDS011;37739;50.350;7.578;2022-09-14T16:07:12;4.07;;;3.60;;
47882;SDS011;37739;50.350;7.578;2022-09-14T16:09:40;3.30;;;3.07;;
47882;SDS011;37739;50.350;7.578;2022-09-14T16:12:09;3.30;;;3.07;;
47882;SDS011;37739;50.350;7.578;2022-09-14T16:14:35;3.40;;;3.10;;
47882;SDS011;37739;50.350;7.578;2022-09-14T16:17:01;3.90;;;3.30;;
47882;SDS011;37739;50.350;7.578;2022-09-14T16:19:29;3.90;;;3.60;;
47882;SDS011;37739;50.350;7.578;2022-09-14T16:21:55;5.80;;;5.30;;
47882;SDS011;37739;50.350;7.578;2022-09-14T16:24:23;4.17;;;3.77;;
47882;SDS011;37739;50.350;7.578;2022-09-14T16:26:49;4.90;;;3.90;;
47882;SDS011;37739;50.350;7.578;2022-09-14T16:29:17;5.57;;;4.50;;
47882;SDS011;37739;50.350;7.578;2022-09-14T16:31:46;3.80;;;3.50;;
47882;SDS011;37739;50.350;7.578;2022-09-14T16:34:16;4.10;;;3.80;;
47882;SDS011;37739;50.350;7.578;2022-09-14T16:36:46;3.70;;;3.33;;
47882;SDS011;37739;50.350;7.578;2022-09-14T16:39:16;3.60;;;3.27;;
47882;SDS011;37739;50.350;7.578;2022-09-14T16:41:47;3.40;;;3.10;;
47882;SDS011;37739;50.350;7.578;2022-09-14T16:44:13;2.83;;;2.63;;
47882;SDS011;37739;50.350;7.578;2022-09-14T16:46:40;3.10;;;2.47;;
47882;SDS011;37739;50.350;7.578;2022-09-14T16:49:06;2.33;;;2.10;;
47882;SDS011;37739;50.350;7.578;2022-09-14T16:51:31;2.17;;;1.97;;
47882;SDS011;37739;50.350;7.578;2022-09-14T16:53:58;2.33;;;2.10;;
47882;SDS011;37739;50.350;7.578;2022-09-14T16:56:25;1.93;;;1.80;;
47882;SDS011;37739;50.350;7.578;2022-09-14T16:58:54;2.20;;;2.00;;
47882;SDS011;37739;50.350;7.578;2022-09-14T17:01:32;1.83;;;1.63;;
47882;SDS011;37739;50.350;7.578;2022-09-14T17:04:06;2.70;;;1.83;;
47882;SDS011;37739;50.350;7.578;2022-09-14T17:06:33;2.53;;;2.23;;
47882;SDS011;37739;50.350;7.578;2022-09-14T17:09:01;2.93;;;2.67;;
47882;SDS011;37739;50.350;7.578;2022-09-14T17:11:31;3.60;;;3.30;;
47882;SDS011;37739;50.350;7.578;2022-09-14T17:14:00;3.50;;;3.17;;
47882;SDS011;37739;50.350;7.578;2022-09-14T17:16:28;4.70;;;4.30;;
47882;SDS011;37739;50.350;7.578;2022-09-14T17:18:57;3.97;;;3.67;;
47882;SDS011;37739;50.350;7.578;2022-09-14T17:21:28;4.97;;;4.57;;
47882;SDS011;37739;50.350;7.578;2022-09-14T17:23:55;5.70;;;5.27;;
47882;SDS011;37739;50.350;7.578;2022-09-14T17:26:23;6.80;;;5.20;;
47882;SDS011;37739;50.350;7.578;2022-09-14T17:28:52;5.67;;;5.17;;
47882;SDS011;37739;50.350;7.578;2022-09-14T17:31:22;7.07;;;6.43;;
47882;SDS011;37739;50.350;7.578;2022-09-14T17:33:51;7.20;;;6.60;;
47882;SDS011;37739;50.350;7.578;2022-09-14T17:36:17;5.73;;;5.33;;
47882;SDS011;37739;50.350;7.578;2022-09-14T17:38:46;6.50;;;6.00;;
47882;SDS011;37739;50.350;7.578;2022-09-14T17:41:18;6.73;;;6.00;;
47882;SDS011;37739;50.350;7.578;2022-09-14T17:43:49;5.43;;;5.03;;
47882;SDS011;37739;50.350;7.578;2022-09-14T17:46:16;5.53;;;5.10;;
47882;SDS011;37739;50.350;7.578;2022-09-14T17:48:48;5.47;;;5.00;;